Lockhart, Texas
Current Conditions -  °F | °C
As of 8:45 AM on Thursday 30 Oct 2014 (Local Time) from KHYI Reporting Station
Clear Clear  
Wind Chill: 63°   Ceiling: Unl
Heat Index: 63°   Visibility: 10mi
Dew Point: 55°   Wind: 6mph
Humidity: 77%   Direction: 60°ENE
Pressure: 30.16"   Gusts: NA
Location:  29.88°N, 97.67°W
Report Text: KHYI 301345Z 06005KT 10SM CLR 17/13 A3016
Loading
Personal Weather Stations






























Interactive Weather Map
Tropical Storm Tracking
New forecast layout! Learn more

10-Day Weather Forecast

Advertisements
Track Severe Weather on mobile